Time;durP1;ratioP1;P1;durP2;ratioP2;P2;SDS_P1;SDS_P2;PMS_P1;PMS_P2;Temp;Humidity;BMP_temperature;BMP_pressure;BME280_temperature;BME280_humidity;BME280_pressure;Samples;Min_cycle;Max_cycle;Signal;HPM_P1;HPM_P2
2023/07/08 00:02:48;;;;;;;;;;;;;;;24.46;39.15;100921.03;5444840;32;35281;-78
2023/07/08 00:05:50;;;;;;;;;;;;;;;25.01;37.80;100910.69;5446310;32;35465;-78
2023/07/08 00:08:52;;;;;;;;;;;;;;;24.87;38.22;100917.31;5450976;32;34642;-78
2023/07/08 00:11:54;;;;;;;;;;;;;;;24.69;38.71;100916.31;5461910;32;34474;-78
2023/07/08 00:14:56;;;;;;;;;;;;;;;24.57;39.22;100912.88;5468796;32;34367;-78
2023/07/08 00:17:59;;;;;;;;;;;;;;;24.20;40.48;100915.25;5460826;32;35346;-78
2023/07/08 00:21:01;;;;;;;;;;;;;;;24.30;40.29;100919.69;5448668;32;34603;-78
2023/07/08 00:24:03;;;;;;;;;;;;;;;24.16;40.81;100917.38;5463674;32;35429;-78
2023/07/08 00:27:07;;;;;;;;;;;;;;;23.67;42.05;100916.25;5462042;32;34784;-79
2023/07/08 00:30:29;;;;;;;;;;;;;;;23.70;42.04;100918.69;5450011;32;34702;-77
2023/07/08 00:33:31;;;;;;;;;;;;;;;23.52;42.75;100915.69;5459131;32;34855;-78
2023/07/08 00:36:33;;;;;;;;;;;;;;;24.04;41.62;100905.88;5450305;32;35495;-79
2023/07/08 00:39:36;;;;;;;;;;;;;;;24.07;41.19;100909.25;5434379;32;35945;-79
2023/07/08 00:42:38;;;;;;;;;;;;;;;23.63;42.09;100911.25;5446660;32;35880;-80
2023/07/08 00:45:41;;;;;;;;;;;;;;;23.71;41.98;100915.00;5434681;32;35339;-79
2023/07/08 00:49:08;;;;;;;;;;;;;;;24.17;41.19;100904.78;5437598;32;34977;-79
2023/07/08 00:52:17;;;;;;;;;;;;;;;23.41;43.00;100909.53;5467710;32;35609;-79
2023/07/08 00:55:19;;;;;;;;;;;;;;;23.84;42.36;100908.59;5449513;32;34276;-78
2023/07/08 00:58:21;;;;;;;;;;;;;;;23.73;42.93;100909.50;5454098;32;34805;-79
2023/07/08 01:01:23;;;;;;;;;;;;;;;23.08;44.69;100910.53;5454448;32;33857;-77
2023/07/08 01:04:26;;;;;;;;;;;;;;;22.64;46.32;100920.38;5459299;32;34277;-78
2023/07/08 01:07:28;;;;;;;;;;;;;;;23.36;44.74;100911.75;5467391;32;34976;-77
2023/07/08 01:10:34;;;;;;;;;;;;;;;22.59;46.96;100910.03;5448393;32;34275;-78
2023/07/08 01:13:37;;;;;;;;;;;;;;;23.56;44.92;100910.06;5440322;32;34848;-78
2023/07/08 01:16:39;;;;;;;;;;;;;;;23.80;43.84;100915.19;5465844;32;35075;-78
2023/07/08 01:19:42;;;;;;;;;;;;;;;23.17;44.77;100905.25;5439433;32;34389;-78
2023/07/08 01:22:44;;;;;;;;;;;;;;;23.36;44.43;100914.44;5451766;32;36586;-77
2023/07/08 01:25:46;;;;;;;;;;;;;;;22.23;47.57;100915.69;5462293;32;35239;-78
2023/07/08 01:28:49;;;;;;;;;;;;;;;22.90;45.55;100918.28;5453026;32;34401;-78
2023/07/08 01:31:51;;;;;;;;;;;;;;;22.08;47.21;100910.50;5448942;32;34789;-77
2023/07/08 01:35:00;;;;;;;;;;;;;;;21.60;48.42;100918.72;5458085;32;34333;-77
2023/07/08 01:38:03;;;;;;;;;;;;;;;21.95;47.73;100914.28;5449122;32;35064;-78
2023/07/08 01:41:05;;;;;;;;;;;;;;;21.69;48.27;100914.47;5448762;32;35148;-77
2023/07/08 01:44:18;;;;;;;;;;;;;;;22.16;46.99;100912.66;5470083;32;35448;-78
2023/07/08 01:47:20;;;;;;;;;;;;;;;21.60;48.25;100918.72;5459078;32;34747;-78
2023/07/08 01:50:23;;;;;;;;;;;;;;;22.21;46.55;100913.09;5447594;32;34361;-77
2023/07/08 01:53:31;;;;;;;;;;;;;;;22.07;46.62;100918.69;5445262;32;34818;-78
2023/07/08 01:56:33;;;;;;;;;;;;;;;21.77;47.74;100914.78;5461379;32;34148;-77
2023/07/08 01:59:35;;;;;;;;;;;;;;;21.95;47.46;100909.78;5465374;32;34896;-79
2023/07/08 02:02:38;;;;;;;;;;;;;;;21.30;49.52;100915.72;5434547;32;34978;-78
2023/07/08 02:05:40;;;;;;;;;;;;;;;22.01;47.67;100901.28;5465874;32;33866;-80
2023/07/08 02:08:42;;;;;;;;;;;;;;;21.57;49.15;100904.72;5447819;32;34943;-77
2023/07/08 02:11:44;;;;;;;;;;;;;;;20.87;51.50;100908.22;5451411;32;35670;-77
2023/07/08 02:14:46;;;;;;;;;;;;;;;21.47;49.97;100903.75;5450462;32;35518;-77
2023/07/08 02:17:49;;;;;;;;;;;;;;;21.65;49.63;100902.34;5449099;32;34064;-79
2023/07/08 02:20:51;;;;;;;;;;;;;;;22.49;47.36;100905.56;5456751;32;35449;-79
2023/07/08 02:23:53;;;;;;;;;;;;;;;22.80;46.61;100903.88;5448501;32;34302;-78
2023/07/08 02:26:55;;;;;;;;;;;;;;;21.40;50.40;100908.72;5451390;32;35372;-77
2023/07/08 02:29:57;;;;;;;;;;;;;;;21.94;49.23;100916.09;5462098;32;35356;-77
2023/07/08 02:32:59;;;;;;;;;;;;;;;20.72;52.91;100920.84;5466788;32;34676;-77
2023/07/08 02:36:01;;;;;;;;;;;;;;;21.09;52.17;100919.00;5462567;32;33789;-77
2023/07/08 02:39:03;;;;;;;;;;;;;;;21.04;52.35;100922.97;5448996;32;34747;-77
2023/07/08 02:42:05;;;;;;;;;;;;;;;21.71;50.50;100909.03;5438953;32;34595;-78
2023/07/08 02:45:07;;;;;;;;;;;;;;;21.57;51.18;100910.94;5460568;32;37421;-77
2023/07/08 02:48:09;;;;;;;;;;;;;;;20.93;52.77;100918.47;5462758;32;33729;-77
2023/07/08 02:51:11;;;;;;;;;;;;;;;21.18;52.23;100921.94;5451106;32;35623;-77
2023/07/08 02:54:13;;;;;;;;;;;;;;;21.71;50.23;100917.91;5465946;32;33799;-77
2023/07/08 02:57:15;;;;;;;;;;;;;;;22.37;48.29;100907.41;5462732;32;34772;-77
2023/07/08 03:00:17;;;;;;;;;;;;;;;21.47;50.16;100919.78;5448678;32;35289;-77
2023/07/08 03:03:19;;;;;;;;;;;;;;;21.70;49.35;100916.19;5466550;32;35827;-77
2023/07/08 03:06:22;;;;;;;;;;;;;;;21.77;49.29;100919.25;5461921;32;35433;-79
2023/07/08 03:09:24;;;;;;;;;;;;;;;21.78;48.72;100923.62;5450623;32;35280;-78
2023/07/08 03:12:26;;;;;;;;;;;;;;;20.06;52.72;100929.19;5446839;32;35313;-77
2023/07/08 03:15:28;;;;;;;;;;;;;;;20.55;51.39;100939.94;5465201;32;35610;-79
2023/07/08 03:18:30;;;;;;;;;;;;;;;20.50;51.94;100940.28;5462350;32;35111;-77
2023/07/08 03:21:32;;;;;;;;;;;;;;;20.62;51.93;100933.19;5461261;32;34896;-77
2023/07/08 03:24:34;;;;;;;;;;;;;;;20.81;51.30;100932.72;5451496;32;34787;-77
2023/07/08 03:27:36;;;;;;;;;;;;;;;20.58;51.85;100936.19;5447285;32;34758;-77
2023/07/08 03:30:38;;;;;;;;;;;;;;;21.13;50.29;100948.19;5438627;32;35095;-77
2023/07/08 03:33:40;;;;;;;;;;;;;;;20.47;51.84;100944.97;5461963;32;34862;-78
2023/07/08 03:36:48;;;;;;;;;;;;;;;20.96;50.56;100947.59;5450526;32;34333;-79
2023/07/08 03:39:50;;;;;;;;;;;;;;;20.75;50.90;100951.84;5448154;32;33344;-79
2023/07/08 03:42:52;;;;;;;;;;;;;;;20.77;51.25;100957.94;5462764;32;34450;-76
2023/07/08 03:45:55;;;;;;;;;;;;;;;20.51;51.84;100951.81;5439261;32;31965;-77
2023/07/08 03:48:57;;;;;;;;;;;;;;;20.53;52.41;100950.72;5458381;32;34368;-77
2023/07/08 03:51:59;;;;;;;;;;;;;;;20.27;52.97;100949.88;5465113;32;35880;-77
2023/07/08 03:55:01;;;;;;;;;;;;;;;20.90;51.31;100960.56;5450716;32;36805;-77
2023/07/08 03:58:03;;;;;;;;;;;;;;;20.29;53.12;100955.13;5465757;32;34856;-77
2023/07/08 04:01:05;;;;;;;;;;;;;;;20.76;51.94;100957.06;5461508;32;35916;-78
2023/07/08 04:04:08;;;;;;;;;;;;;;;20.74;52.01;100955.50;5446043;32;34879;-79
2023/07/08 04:07:12;;;;;;;;;;;;;;;20.73;52.04;100956.44;5450282;32;34732;-77
2023/07/08 04:10:14;;;;;;;;;;;;;;;20.52;52.89;100956.16;5463681;32;34445;-77
2023/07/08 04:13:16;;;;;;;;;;;;;;;21.67;49.94;100942.34;5450689;32;34596;-77
2023/07/08 04:16:28;;;;;;;;;;;;;;;22.01;48.96;100957.47;5433466;32;34611;-78
2023/07/08 04:19:32;;;;;;;;;;;;;;;21.13;50.96;100953.53;5449446;32;34245;-77
2023/07/08 04:22:34;;;;;;;;;;;;;;;20.79;52.36;100954.16;5437504;32;35508;-77
2023/07/08 04:25:36;;;;;;;;;;;;;;;20.81;51.59;100960.28;5463049;32;34249;-77
2023/07/08 04:28:38;;;;;;;;;;;;;;;21.35;50.22;100964.34;5453167;32;35377;-79
2023/07/08 04:31:41;;;;;;;;;;;;;;;21.21;50.49;100968.03;5448521;32;36027;-77
2023/07/08 04:34:43;;;;;;;;;;;;;;;21.20;50.55;100965.47;5468029;32;34925;-77
2023/07/08 04:37:47;;;;;;;;;;;;;;;21.86;49.23;100954.19;5463420;32;35249;-77
2023/07/08 04:40:50;;;;;;;;;;;;;;;22.11;48.57;100953.16;5451066;32;34998;-77
2023/07/08 04:43:53;;;;;;;;;;;;;;;22.01;48.83;100952.13;5450878;32;35024;-77
2023/07/08 04:46:56;;;;;;;;;;;;;;;21.63;49.66;100963.94;5432791;32;34320;-77
2023/07/08 04:49:58;;;;;;;;;;;;;;;22.13;48.32;100964.59;5450379;32;32652;-77
2023/07/08 04:53:00;;;;;;;;;;;;;;;21.07;51.17;100966.38;5434473;32;35213;-79
2023/07/08 04:56:02;;;;;;;;;;;;;;;22.14;48.97;100966.28;5451092;32;35209;-78
2023/07/08 04:59:05;;;;;;;;;;;;;;;22.54;47.44;100968.50;5463031;32;34795;-78
2023/07/08 05:02:07;;;;;;;;;;;;;;;22.70;46.49;100968.09;5450010;32;34688;-77
2023/07/08 05:05:09;;;;;;;;;;;;;;;23.59;44.73;100968.84;5451718;32;34787;-78
2023/07/08 05:08:11;;;;;;;;;;;;;;;23.75;43.97;100967.41;5462807;32;34761;-78
2023/07/08 05:11:13;;;;;;;;;;;;;;;25.06;40.50;100957.72;5455434;32;32791;-78
2023/07/08 05:14:15;;;;;;;;;;;;;;;24.39;41.85;100962.87;5464197;32;35396;-77
2023/07/08 05:17:17;;;;;;;;;;;;;;;24.38;41.10;100962.00;5452661;32;35389;-77
2023/07/08 05:20:19;;;;;;;;;;;;;;;25.01;40.22;100967.16;5447257;32;34953;-77
2023/07/08 05:23:22;;;;;;;;;;;;;;;25.67;38.39;100970.03;5436827;32;33713;-77
2023/07/08 05:26:24;;;;;;;;;;;;;;;26.22;36.94;100966.69;5451732;32;34496;-77
2023/07/08 05:29:26;;;;;;;;;;;;;;;27.31;35.15;100971.25;5463217;32;34285;-77
2023/07/08 05:32:28;;;;;;;;;;;;;;;26.79;35.75;100976.34;5451080;32;34800;-79
2023/07/08 05:35:30;;;;;;;;;;;;;;;27.31;34.75;100978.47;5447582;32;35223;-78
2023/07/08 05:38:32;;;;;;;;;;;;;;;25.64;38.06;100981.94;5454831;32;33563;-79
2023/07/08 05:41:34;;;;;;;;;;;;;;;27.13;35.58;100971.22;5436362;32;35338;-77
2023/07/08 05:44:36;;;;;;;;;;;;;;;26.04;37.76;100985.44;5433910;32;34624;-77
2023/07/08 05:47:38;;;;;;;;;;;;;;;27.27;35.21;100980.63;5463394;32;34946;-77
2023/07/08 05:50:41;;;;;;;;;;;;;;;28.07;33.83;100985.00;5446117;32;35797;-77
2023/07/08 05:53:43;;;;;;;;;;;;;;;28.48;32.90;100988.00;5452328;32;34755;-77
2023/07/08 05:56:45;;;;;;;;;;;;;;;27.82;33.44;100995.81;5447334;32;34938;-77
2023/07/08 05:59:47;;;;;;;;;;;;;;;26.42;36.51;100993.44;5467091;32;34224;-77
2023/07/08 06:02:49;;;;;;;;;;;;;;;26.73;35.96;100993.16;5434900;32;35190;-77
2023/07/08 06:05:51;;;;;;;;;;;;;;;26.33;36.85;100993.44;5462525;32;34991;-78
2023/07/08 06:08:53;;;;;;;;;;;;;;;26.38;37.16;100992.00;5466894;32;35149;-77
2023/07/08 06:11:55;;;;;;;;;;;;;;;27.45;35.21;100999.53;5446816;32;34894;-78
2023/07/08 06:14:58;;;;;;;;;;;;;;;27.11;35.68;100993.94;5465893;32;33551;-77
2023/07/08 06:18:02;;;;;;;;;;;;;;;26.49;37.02;100996.41;5447006;32;34932;-78
2023/07/08 06:21:05;;;;;;;;;;;;;;;26.65;36.47;100993.91;5467414;32;35227;-78
2023/07/08 06:24:07;;;;;;;;;;;;;;;26.32;36.59;100994.44;5462458;32;34837;-78
2023/07/08 06:27:09;;;;;;;;;;;;;;;26.93;36.73;100999.31;5463007;32;34012;-77
2023/07/08 06:30:11;;;;;;;;;;;;;;;28.56;33.03;100990.75;5466294;32;35398;-77
2023/07/08 06:33:13;;;;;;;;;;;;;;;27.17;34.71;100996.03;5453268;32;34692;-78
2023/07/08 06:36:16;;;;;;;;;;;;;;;26.30;36.37;100991.91;5437416;32;33689;-78
2023/07/08 06:39:18;;;;;;;;;;;;;;;29.58;30.95;100984.28;5438290;32;34949;-78
2023/07/08 06:42:20;;;;;;;;;;;;;;;29.02;30.91;100982.31;5465672;32;34631;-78
2023/07/08 06:45:22;;;;;;;;;;;;;;;27.96;33.08;100984.47;5463251;32;34762;-77
2023/07/08 06:48:25;;;;;;;;;;;;;;;29.65;30.42;100982.59;5462457;32;35934;-78
2023/07/08 06:51:27;;;;;;;;;;;;;;;29.93;30.31;100977.62;5451704;32;34976;-79
2023/07/08 06:54:29;;;;;;;;;;;;;;;31.04;28.06;100976.75;5462099;32;33694;-79
2023/07/08 06:57:32;;;;;;;;;;;;;;;31.11;27.36;100975.06;5451326;32;34931;-78
2023/07/08 07:00:33;;;;;;;;;;;;;;;31.39;27.66;100969.09;5462401;32;35785;-78
2023/07/08 07:03:35;;;;;;;;;;;;;;;31.11;27.58;100971.47;5466117;32;34750;-79
2023/07/08 07:06:38;;;;;;;;;;;;;;;30.63;27.50;100968.81;5450187;32;34368;-78
2023/07/08 07:09:40;;;;;;;;;;;;;;;31.76;26.38;100971.84;5409106;32;840575;-79
2023/07/08 07:12:42;;;;;;;;;;;;;;;32.13;25.17;100959.25;5466629;32;34805;-78
2023/07/08 07:15:45;;;;;;;;;;;;;;;32.23;23.99;100959.81;5461830;32;35524;-78
2023/07/08 07:18:47;;;;;;;;;;;;;;;32.53;23.36;100963.41;5465621;32;34990;-79
2023/07/08 07:21:49;;;;;;;;;;;;;;;32.16;23.62;100961.63;5461610;32;34400;-80
2023/07/08 07:24:51;;;;;;;;;;;;;;;32.73;23.26;100955.50;5466012;32;36721;-78
2023/07/08 07:27:53;;;;;;;;;;;;;;;33.08;23.46;100961.16;5450032;32;35374;-78
2023/07/08 07:30:56;;;;;;;;;;;;;;;34.15;21.86;100955.63;5461866;32;34984;-77
2023/07/08 07:33:58;;;;;;;;;;;;;;;32.10;24.12;100956.06;5439681;32;34594;-79
2023/07/08 07:37:01;;;;;;;;;;;;;;;34.25;21.89;100955.25;5460793;32;34978;-78
2023/07/08 07:40:03;;;;;;;;;;;;;;;33.88;22.53;100955.41;5449461;32;34935;-78
2023/07/08 07:43:05;;;;;;;;;;;;;;;34.11;22.03;100954.31;5448844;32;34875;-78
2023/07/08 07:46:07;;;;;;;;;;;;;;;33.54;22.87;100960.78;5445377;32;34302;-79
2023/07/08 07:49:09;;;;;;;;;;;;;;;34.66;21.08;100950.66;5435548;32;35162;-79
2023/07/08 07:52:12;;;;;;;;;;;;;;;33.17;22.89;100957.28;5450004;32;34755;-79
2023/07/08 07:55:14;;;;;;;;;;;;;;;32.51;23.49;100956.47;5450346;32;35023;-77
2023/07/08 07:58:17;;;;;;;;;;;;;;;33.08;22.76;100958.44;5454110;32;34279;-79
2023/07/08 08:01:19;;;;;;;;;;;;;;;33.35;22.42;100949.47;5468091;32;35012;-78
2023/07/08 08:04:22;;;;;;;;;;;;;;;33.67;22.18;100944.53;5463516;32;36145;-78
2023/07/08 08:07:24;;;;;;;;;;;;;;;35.32;19.97;100928.13;5451104;32;35405;-77
2023/07/08 08:10:26;;;;;;;;;;;;;;;34.82;20.89;100929.47;5451165;32;34391;-78
2023/07/08 08:13:28;;;;;;;;;;;;;;;34.52;21.04;100927.06;5435979;32;35080;-78
2023/07/08 08:16:30;;;;;;;;;;;;;;;33.68;21.90;100935.31;5456730;32;35103;-78
2023/07/08 08:19:32;;;;;;;;;;;;;;;34.49;20.72;100927.47;5449336;32;34589;-78
2023/07/08 08:22:34;;;;;;;;;;;;;;;34.53;20.55;100936.13;5469963;32;34863;-79
2023/07/08 08:25:36;;;;;;;;;;;;;;;36.36;18.63;100916.44;5449723;32;34256;-78
2023/07/08 08:28:39;;;;;;;;;;;;;;;35.32;19.50;100924.56;5464037;32;34923;-77
2023/07/08 08:31:41;;;;;;;;;;;;;;;34.21;20.75;100927.53;5437045;32;35639;-78
2023/07/08 08:34:45;;;;;;;;;;;;;;;35.83;19.24;100926.69;5457981;32;35288;-79
2023/07/08 08:37:47;;;;;;;;;;;;;;;35.78;19.39;100924.56;5454834;32;34754;-78
2023/07/08 08:40:49;;;;;;;;;;;;;;;35.53;19.63;100922.47;5463972;32;34933;-78
2023/07/08 08:43:51;;;;;;;;;;;;;;;36.04;18.80;100918.25;5440453;32;35392;-78
2023/07/08 08:47:16;;;;;;;;;;;;;;;37.79;17.31;100914.06;5445724;32;35822;-80
2023/07/08 08:50:37;;;;;;;;;;;;;;;36.70;18.15;100918.00;5450443;32;34879;-80
2023/07/08 08:53:39;;;;;;;;;;;;;;;35.73;19.28;100924.38;5466666;32;34415;-77
2023/07/08 08:56:44;;;;;;;;;;;;;;;36.73;18.04;100912.09;5450133;32;34473;-79
2023/07/08 08:59:49;;;;;;;;;;;;;;;34.58;19.92;100922.69;5453684;32;34214;-77
2023/07/08 09:02:52;;;;;;;;;;;;;;;33.53;21.24;100918.22;5463017;32;34423;-79
2023/07/08 09:05:54;;;;;;;;;;;;;;;35.91;18.33;100910.91;5463965;32;34506;-80
2023/07/08 09:08:57;;;;;;;;;;;;;;;35.58;19.27;100899.16;5451709;32;35693;-81
2023/07/08 09:12:01;;;;;;;;;;;;;;;35.93;18.95;100897.84;5447188;32;34721;-79
2023/07/08 09:15:13;;;;;;;;;;;;;;;38.69;16.30;100886.84;5466798;32;34354;-79
2023/07/08 09:18:24;;;;;;;;;;;;;;;36.51;18.53;100894.31;5435551;32;34572;-79
2023/07/08 09:21:34;;;;;;;;;;;;;;;36.25;18.61;100897.97;5456148;32;35178;-77
2023/07/08 09:24:44;;;;;;;;;;;;;;;37.80;17.02;100899.31;5464991;32;35563;-79
2023/07/08 09:27:46;;;;;;;;;;;;;;;37.05;17.64;100903.94;5446397;32;34265;-80
2023/07/08 09:30:48;;;;;;;;;;;;;;;35.78;18.64;100900.81;5453032;32;36014;-79
2023/07/08 09:33:52;;;;;;;;;;;;;;;33.69;20.89;100909.78;5462733;32;34687;-79
2023/07/08 09:36:53;;;;;;;;;;;;;;;31.75;23.12;100910.38;5440934;32;34878;-80
2023/07/08 09:39:56;;;;;;;;;;;;;;;32.53;22.31;100909.00;5463791;32;35026;-78
2023/07/08 09:43:00;;;;;;;;;;;;;;;31.89;23.11;100908.72;5454047;32;35294;-78
2023/07/08 09:46:03;;;;;;;;;;;;;;;31.76;23.63;100908.50;5462308;32;34961;-78
2023/07/08 09:49:25;;;;;;;;;;;;;;;30.92;24.54;100904.94;5440957;32;34340;-78
2023/07/08 09:52:29;;;;;;;;;;;;;;;31.74;23.44;100907.81;5466553;32;34983;-79
2023/07/08 09:55:31;;;;;;;;;;;;;;;30.94;24.86;100913.75;5462833;32;35445;-78
2023/07/08 09:58:37;;;;;;;;;;;;;;;30.50;25.23;100917.00;5466822;32;34842;-79
2023/07/08 10:01:40;;;;;;;;;;;;;;;31.83;23.48;100909.47;5449899;32;34107;-80
2023/07/08 10:04:43;;;;;;;;;;;;;;;32.23;23.21;100910.88;5451649;32;35330;-78
2023/07/08 10:07:46;;;;;;;;;;;;;;;31.19;24.30;100898.97;5449608;32;34655;-78
2023/07/08 10:10:58;;;;;;;;;;;;;;;30.62;24.93;100904.75;5462897;32;34457;-78
2023/07/08 10:14:05;;;;;;;;;;;;;;;30.15;25.76;100902.94;5451606;32;34003;-76
2023/07/08 10:17:15;;;;;;;;;;;;;;;32.37;23.05;100889.31;5448000;32;34982;-78
2023/07/08 10:20:17;;;;;;;;;;;;;;;34.02;20.93;100884.63;5449656;32;35410;-80
2023/07/08 10:23:26;;;;;;;;;;;;;;;34.67;20.20;100880.53;5451887;32;36727;-78
2023/07/08 10:26:29;;;;;;;;;;;;;;;35.45;19.14;100876.25;5447553;32;34271;-78
2023/07/08 10:29:34;;;;;;;;;;;;;;;35.59;18.71;100881.69;5440122;32;35460;-79
2023/07/08 10:32:55;;;;;;;;;;;;;;;35.91;18.52;100874.50;5448657;32;35497;-79
2023/07/08 10:36:17;;;;;;;;;;;;;;;36.79;17.78;100866.56;5463714;32;34920;-79
2023/07/08 10:39:29;;;;;;;;;;;;;;;37.11;17.20;100871.00;5466456;32;35263;-79
2023/07/08 10:42:38;;;;;;;;;;;;;;;37.18;17.29;100861.88;5463748;32;35027;-79
2023/07/08 10:45:59;;;;;;;;;;;;;;;36.57;17.84;100863.31;5449564;32;35189;-80
2023/07/08 10:49:07;;;;;;;;;;;;;;;38.00;16.34;100849.72;5459111;32;34803;-80
2023/07/08 10:52:28;;;;;;;;;;;;;;;38.05;16.43;100843.53;5450220;32;35485;-79
2023/07/08 10:55:30;;;;;;;;;;;;;;;38.68;15.66;100851.38;5465907;32;35398;-79
2023/07/08 10:58:41;;;;;;;;;;;;;;;39.07;15.75;100835.34;5463197;32;34508;-80
2023/07/08 11:01:58;;;;;;;;;;;;;;;38.02;16.11;100842.09;5452208;32;35053;-78
2023/07/08 11:05:01;;;;;;;;;;;;;;;37.89;16.29;100845.00;5448671;32;34289;-78
2023/07/08 11:08:21;;;;;;;;;;;;;;;41.14;13.42;100835.31;5447967;32;35680;-78
2023/07/08 11:11:26;;;;;;;;;;;;;;;37.81;16.06;100840.66;5468714;32;34826;-78
2023/07/08 11:14:49;;;;;;;;;;;;;;;38.28;15.69;100842.88;5462511;32;35350;-79
2023/07/08 11:17:51;;;;;;;;;;;;;;;35.21;18.94;100841.31;5458555;32;34894;-79
2023/07/08 11:20:58;;;;;;;;;;;;;;;34.52;19.60;100844.34;5448030;32;34661;-79
2023/07/08 11:24:02;;;;;;;;;;;;;;;35.38;18.81;100839.84;5463265;32;34616;-79
2023/07/08 11:27:05;;;;;;;;;;;;;;;34.61;19.61;100843.13;5451173;32;34872;-77
2023/07/08 11:30:11;;;;;;;;;;;;;;;34.12;19.82;100838.72;5461648;32;35540;-78
2023/07/08 11:33:14;;;;;;;;;;;;;;;33.27;20.94;100839.81;5470092;32;34662;-79
2023/07/08 11:36:16;;;;;;;;;;;;;;;35.58;18.66;100825.34;5447051;32;34176;-78
2023/07/08 11:39:37;;;;;;;;;;;;;;;35.60;18.68;100828.69;5466140;32;35772;-78
2023/07/08 11:42:40;;;;;;;;;;;;;;;34.69;19.51;100821.94;5464794;32;36078;-78
2023/07/08 11:45:43;;;;;;;;;;;;;;;34.16;19.87;100812.75;5460397;32;34650;-80
2023/07/08 11:48:48;;;;;;;;;;;;;;;34.93;19.07;100808.75;5463967;32;34768;-80
2023/07/08 11:51:50;;;;;;;;;;;;;;;38.14;15.73;100799.09;5447179;32;34444;-78
2023/07/08 11:54:57;;;;;;;;;;;;;;;40.02;14.04;100799.34;5451232;32;34326;-78
2023/07/08 11:57:59;;;;;;;;;;;;;;;38.47;15.47;100798.66;5447712;32;34741;-78
2023/07/08 12:01:10;;;;;;;;;;;;;;;38.94;15.11;100797.94;5446752;32;33509;-79
2023/07/08 12:04:12;;;;;;;;;;;;;;;39.09;14.77;100789.22;5465847;32;34649;-80
2023/07/08 12:07:16;;;;;;;;;;;;;;;40.14;14.04;100786.41;5461047;32;35407;-78
2023/07/08 12:10:24;;;;;;;;;;;;;;;40.99;13.03;100781.88;5451325;32;34658;-78
2023/07/08 12:13:26;;;;;;;;;;;;;;;38.03;15.57;100791.62;5446645;32;34906;-79
2023/07/08 12:16:31;;;;;;;;;;;;;;;35.28;18.60;100782.87;5436024;32;36212;-78
2023/07/08 12:19:35;;;;;;;;;;;;;;;36.58;16.93;100778.25;5436129;32;35855;-78
2023/07/08 12:22:38;;;;;;;;;;;;;;;34.92;18.47;100794.28;5433638;32;34927;-77
2023/07/08 12:25:40;;;;;;;;;;;;;;;33.76;19.93;100784.44;5450159;32;34213;-77
2023/07/08 12:28:42;;;;;;;;;;;;;;;33.02;19.99;100791.22;5445842;32;34248;-79
2023/07/08 12:31:45;;;;;;;;;;;;;;;34.00;19.59;100775.75;5445797;32;35327;-77
2023/07/08 12:34:47;;;;;;;;;;;;;;;33.05;20.32;100779.97;5461026;32;35657;-78
2023/07/08 12:37:50;;;;;;;;;;;;;;;31.67;22.00;100781.91;5462829;32;34747;-77
2023/07/08 12:40:52;;;;;;;;;;;;;;;32.23;21.38;100783.06;5450199;32;34899;-78
2023/07/08 12:43:54;;;;;;;;;;;;;;;32.20;21.40;100780.75;5465637;32;35038;-77
2023/07/08 12:46:56;;;;;;;;;;;;;;;31.64;22.30;100780.41;5449590;32;35116;-79
2023/07/08 12:49:58;;;;;;;;;;;;;;;31.68;22.21;100770.00;5446245;32;35715;-77
2023/07/08 12:53:09;;;;;;;;;;;;;;;31.65;22.17;100768.50;5440022;32;34939;-79
2023/07/08 12:56:11;;;;;;;;;;;;;;;32.75;20.97;100771.06;5462678;32;34698;-78
2023/07/08 12:59:22;;;;;;;;;;;;;;;31.67;21.97;100762.87;5449984;32;34304;-78
2023/07/08 13:02:24;;;;;;;;;;;;;;;32.08;21.27;100764.09;5452114;32;34896;-78
2023/07/08 13:05:27;;;;;;;;;;;;;;;32.33;20.99;100763.72;5464711;32;36758;-79
2023/07/08 13:08:30;;;;;;;;;;;;;;;32.70;20.81;100754.47;5442177;32;35866;-77
2023/07/08 13:11:32;;;;;;;;;;;;;;;32.41;21.41;100758.19;5463171;32;35539;-78
2023/07/08 13:14:35;;;;;;;;;;;;;;;32.36;21.17;100751.66;5452439;32;35661;-77
2023/07/08 13:17:38;;;;;;;;;;;;;;;32.42;20.84;100751.72;5451455;32;35012;-77
2023/07/08 13:20:40;;;;;;;;;;;;;;;32.56;21.04;100749.97;5449505;32;34788;-79
2023/07/08 13:23:43;;;;;;;;;;;;;;;32.46;21.08;100750.31;5467846;32;34337;-78
2023/07/08 13:26:46;;;;;;;;;;;;;;;32.17;21.29;100744.94;5451369;32;37295;-79
2023/07/08 13:29:50;;;;;;;;;;;;;;;32.29;20.91;100741.50;5471270;32;35486;-79
2023/07/08 13:32:53;;;;;;;;;;;;;;;32.10;21.54;100747.56;5462647;32;35482;-78
2023/07/08 13:35:56;;;;;;;;;;;;;;;32.06;21.89;100760.69;5442665;32;34751;-78
2023/07/08 13:38:59;;;;;;;;;;;;;;;32.74;20.96;100760.38;5465408;32;34346;-79
2023/07/08 13:42:02;;;;;;;;;;;;;;;32.20;21.65;100756.28;5468306;32;34273;-80
2023/07/08 13:45:04;;;;;;;;;;;;;;;32.00;21.89;100756.00;5467022;32;34767;-78
2023/07/08 13:48:06;;;;;;;;;;;;;;;32.56;21.15;100755.41;5459186;32;35101;-78
2023/07/08 13:51:08;;;;;;;;;;;;;;;32.34;21.44;100749.13;5466155;32;35044;-79
2023/07/08 13:54:16;;;;;;;;;;;;;;;32.73;20.73;100748.66;5462311;32;35050;-79
2023/07/08 13:57:19;;;;;;;;;;;;;;;32.22;21.34;100753.34;5449566;32;35283;-78
2023/07/08 14:00:21;;;;;;;;;;;;;;;32.39;21.08;100751.25;5464263;32;34358;-79
2023/07/08 14:03:24;;;;;;;;;;;;;;;32.21;21.59;100743.50;5454556;32;34909;-78
2023/07/08 14:06:29;;;;;;;;;;;;;;;32.04;21.58;100743.75;5466084;32;34769;-78
2023/07/08 14:09:31;;;;;;;;;;;;;;;31.67;21.87;100733.84;5462287;32;34340;-79
2023/07/08 14:12:33;;;;;;;;;;;;;;;32.45;21.14;100729.56;5466265;32;34757;-79
2023/07/08 14:15:35;;;;;;;;;;;;;;;33.69;20.24;100727.16;5434628;32;36528;-78
2023/07/08 14:18:37;;;;;;;;;;;;;;;33.64;19.78;100726.91;5464561;32;35834;-79
2023/07/08 14:21:39;;;;;;;;;;;;;;;33.01;20.72;100729.66;5451185;32;34620;-79
2023/07/08 14:24:42;;;;;;;;;;;;;;;31.76;21.61;100729.16;5450327;32;35838;-79
2023/07/08 14:27:44;;;;;;;;;;;;;;;32.78;20.95;100723.56;5449260;32;35808;-78
2023/07/08 14:30:47;;;;;;;;;;;;;;;33.19;20.24;100729.16;5462118;32;34829;-79
2023/07/08 14:33:49;;;;;;;;;;;;;;;32.21;21.22;100736.19;5451280;32;35003;-78
2023/07/08 14:36:51;;;;;;;;;;;;;;;31.94;21.63;100732.31;5447838;32;35484;-79
2023/07/08 14:39:53;;;;;;;;;;;;;;;32.07;21.47;100728.91;5448635;32;34237;-78
2023/07/08 14:43:06;;;;;;;;;;;;;;;32.10;21.60;100730.41;5466278;32;35178;-78
2023/07/08 14:46:08;;;;;;;;;;;;;;;32.43;20.89;100737.06;5444172;32;34773;-78
2023/07/08 14:49:21;;;;;;;;;;;;;;;31.94;21.54;100735.03;5449092;32;35913;-79
2023/07/08 14:52:23;;;;;;;;;;;;;;;32.20;21.64;100729.09;5450360;32;35341;-77
2023/07/08 14:55:25;;;;;;;;;;;;;;;32.36;21.62;100725.28;5464213;32;34736;-77
2023/07/08 14:58:28;;;;;;;;;;;;;;;32.87;20.85;100725.16;5448610;32;35104;-78
2023/07/08 15:01:31;;;;;;;;;;;;;;;32.93;20.85;100723.53;5461015;32;35572;-79
2023/07/08 15:04:33;;;;;;;;;;;;;;;32.25;21.54;100710.28;5450925;32;34509;-80
2023/07/08 15:07:35;;;;;;;;;;;;;;;31.97;21.70;100720.22;5461584;32;34862;-79
2023/07/08 15:10:37;;;;;;;;;;;;;;;32.19;21.27;100724.66;5452505;32;35422;-77
2023/07/08 15:13:39;;;;;;;;;;;;;;;32.21;21.22;100722.59;5447541;32;34329;-78
2023/07/08 15:16:41;;;;;;;;;;;;;;;31.63;22.10;100712.69;5435112;32;36421;-79
2023/07/08 15:19:44;;;;;;;;;;;;;;;31.76;21.99;100707.41;5464542;32;35004;-78
2023/07/08 15:22:45;;;;;;;;;;;;;;;32.22;21.33;100707.13;5434456;32;35418;-78
2023/07/08 15:25:48;;;;;;;;;;;;;;;32.76;20.76;100698.44;5466492;32;34762;-79
2023/07/08 15:28:50;;;;;;;;;;;;;;;32.21;21.14;100710.88;5461719;32;34125;-79
2023/07/08 15:31:52;;;;;;;;;;;;;;;32.09;21.40;100710.53;5451772;32;34771;-78
2023/07/08 15:34:54;;;;;;;;;;;;;;;31.71;21.67;100721.56;5465411;32;34796;-78
2023/07/08 15:37:59;;;;;;;;;;;;;;;31.24;22.18;100711.94;5450665;32;34966;-82
2023/07/08 15:41:01;;;;;;;;;;;;;;;32.12;21.33;100701.16;5449952;32;35741;-78
2023/07/08 15:44:03;;;;;;;;;;;;;;;32.38;21.34;100687.00;5442943;32;35233;-77